Quick Links (Output Below):   Max & Min Temps   /   Climate Reports   /   Zone Forecasts
River Forecasts   /   Forestry Forecasts   /   Aviation Forecasts   /   Radars   /   Features

Terminal Aerodrome Forecast (Monticello)

Pick a Site:
Arkadelphia | El Dorado | Fayetteville | Fort Smith | Harrison | Highfill | Hot Springs | Jonesboro
Little Rock | Monticello | Mountain Home | Pine Bluff | Texarkana
 Forecast 

KLLQ 200530Z 2006/2106 00000KT P6SM SKC
     FM201000 00000KT 5SM BR SKC
      TEMPO 2010/2013 2SM BR
     FM201400 14005KT P6SM SCT045
     FM210000 VRB03KT P6SM SKC=


 Latest METARs (Observations) 
How to Decode METARs
10Z KLLQ 200953Z AUTO 00000KT 10SM CLR 19/18 A2999 RMK AO2 SLP153
         T01940183
         
09Z KLLQ 200853Z AUTO 00000KT 10SM CLR 19/18 A2998 RMK AO2 SLP150
         T01940183 55004
         
08Z KLLQ 200753Z AUTO 00000KT 10SM CLR 21/19 A2998 RMK AO2 SLP149
         T02060194
         
07Z KLLQ 200653Z AUTO 00000KT 10SM CLR 21/19 A2999 RMK AO2 SLP153
         T02060194
         
06Z KLLQ 200553Z AUTO 00000KT 10SM CLR 21/19 A3000 RMK AO2 SLP154
         T02110194 10278 20211 403110200 50001
         
05Z KLLQ 200453Z AUTO 00000KT 10SM CLR 22/20 A3000 RMK AO2 SLP156
         T02220200
         
04Z KLLQ 200353Z AUTO 00000KT 10SM CLR 22/20 A3000 RMK AO2 SLP157
         T02170200
         
03Z KLLQ 200253Z AUTO 00000KT 10SM CLR 24/21 A2999 RMK AO2 SLP153
         T02390211 53012
         
02Z KLLQ 200153Z AUTO 00000KT 10SM CLR 24/22 A2998 RMK AO2 SLP150
         T02390217
         
01Z KLLQ 200053Z AUTO 00000KT 10SM CLR 24/22 A2997 RMK AO2 SLP145
         T02440217
         
***** Today's Observations (Above) *****


Back to Main Page
http://www.srh.noaa.gov/lzk/qfcst.php

USA.gov is the U.S. government's official web portal to all federal, state and local government web resources and services.